Etchingham, United Kingdom
Current Conditions -  °F | °C
As of 9:50 AM on Sunday 23 Nov 2014 (Local Time) from EGMD Reporting Station
Broken Clouds Broken Clouds  
Wind Chill: 57°   Ceiling: 900
Heat Index: 57°   Visibility: 4mi
Dew Point: 57°   Wind: 3mph
Humidity: 100%   Direction: 220°SW
Pressure: 29.97"   Gusts: NA
Location:  51.01°N, 0.44°E
Report Text: EGMD 230950Z 22003KT 6000 BKN009 14/14 Q1015
Loading
Personal Weather Stations






























Interactive Weather Map New forecast layout! Learn more

10-Day Weather Forecast

Advertisements
Track Severe Weather on mobile